Sunday, May 27, 2018, 11:46 AM EDT

KPTB, Petersburg, Dinwiddie County Airport

Location: Petersburg, VA, United States Lat: 37.183
Local Time: 11:46 AM EDT (15:46 GMT) Lon: -77.517
Time Zone: US/Eastern Elev: 193 ft

Show me the last for .
Show Decoded

2018-05-27 11:35 METAR KPTB 271535Z AUTO 22007KT 10SM BKN017 OVC025 26/22 A2999 RMK AO2 T02580217
                 =
2018-05-27 11:15 METAR KPTB 271515Z AUTO 22006KT 10SM BKN015 OVC023 26/22 A2998 RMK AO2 T02550215
                 =
2018-05-27 10:55 METAR KPTB 271455Z AUTO 21007KT 10SM BKN015 OVC021 25/22 A2998 RMK AO2 T02530217
                 =
2018-05-27 10:35 METAR KPTB 271435Z AUTO 21006KT 10SM BKN013 OVC018 26/22 A2998 RMK AO2 T02550219
                 =
2018-05-27 10:15 METAR KPTB 271415Z AUTO 20006KT 10SM BKN013 OVC023 25/22 A2998 RMK AO2 T02540218
                 =
2018-05-27 09:55 METAR KPTB 271355Z AUTO 21006KT 10SM BKN013 OVC018 25/22 A2998 RMK AO2 T02450217
                 =
2018-05-27 09:35 METAR KPTB 271335Z AUTO 22006KT 10SM OVC011 24/22 A2999 RMK AO2 T02370215 =
2018-05-27 09:15 METAR KPTB 271315Z AUTO 21006KT 7SM OVC011 24/22 A2998 RMK AO2 T02350215 =
2018-05-27 08:55 METAR KPTB 271255Z AUTO 21005KT 10SM OVC009 23/21 A2998 RMK AO2 T02340213 =
2018-05-27 08:35 METAR KPTB 271235Z AUTO 21007KT 10SM OVC009 24/22 A2998 RMK AO2 T02400218 =
2018-05-27 08:15 METAR KPTB 271215Z AUTO 21006KT 10SM OVC009 23/21 A2997 RMK AO2 T02270211 =
2018-05-27 07:55 METAR KPTB 271155Z AUTO 21004KT 10SM -RA OVC009 23/21 A2996 RMK AO2 60012 70026
                 T02250211 10225 20210 =
2018-05-27 07:35 METAR KPTB 271135Z AUTO 21005KT 10SM OVC009 23/21 A2997 RMK AO2 T02250210 =
2018-05-27 07:15 METAR KPTB 271115Z AUTO 21006KT 10SM -RA OVC007 22/21 A2996 RMK AO2 T02220208 =
2018-05-27 06:55 METAR KPTB 271055Z AUTO 21005KT 7SM OVC007 22/21 A2996 RMK AO2 T02210208 =
2018-05-27 06:35 METAR KPTB 271035Z AUTO 21006KT 7SM OVC007 22/21 A2995 RMK AO2 T02180206 =
2018-05-27 06:15 METAR KPTB 271015Z AUTO 21003KT 7SM -RA OVC009 22/21 A2995 RMK AO2 T02150205 =
2018-05-27 05:55 METAR KPTB 270955Z AUTO 19004KT 10SM BKN009 BKN100 21/20 A2994 RMK AO2 T02130202
                 =
2018-05-27 05:35 METAR KPTB 270935Z AUTO 19003KT 10SM -RA SCT120 21/20 A2993 RMK AO2 T02130201 =
2018-05-27 05:15 METAR KPTB 270915Z AUTO 19003KT 10SM -RA SCT120 22/20 A2993 RMK AO2 T02150202 =
2018-05-27 04:55 METAR KPTB 270855Z AUTO 00000KT 10SM -RA SCT009 SCT048 SCT075 22/20 A2993 RMK
                 AO2 60012 T02150202 =
2018-05-27 04:35 METAR KPTB 270835Z AUTO 20003KT 10SM -RA SCT009 SCT047 SCT060 22/20 A2993 RMK
                 AO2 T02150201 =
2018-05-27 04:15 METAR KPTB 270815Z AUTO 20005KT 10SM SCT007 SCT100 21/20 A2993 RMK AO2 T02120200
                 =
2018-05-27 03:55 METAR KPTB 270755Z AUTO 21004KT 10SM BKN007 21/20 A2993 RMK AO2 LTG DSNT SE
                 P0001 T02110200 =
2018-05-27 03:35 METAR KPTB 270735Z AUTO 20004KT 10SM SCT120 21/20 A2992 RMK AO2 P0001 T02110198
                 =
2018-05-27 03:15 METAR KPTB 270715Z AUTO 21005KT 10SM -RA SCT120 21/20 A2992 RMK AO2 P0001
                 T02100197 =
2018-05-27 02:55 METAR KPTB 270655Z AUTO 19005KT 7SM -RA SCT120 21/20 A2993 RMK AO2 LTG DSNT SE
                 P0010 T02100197 =
2018-05-27 02:35 METAR KPTB 270635Z AUTO 18005KT 7SM RA SCT100 BKN120 21/20 A2993 RMK AO2 LTG
                 DSNT S P0007 T02120200 =
2018-05-27 02:15 METAR KPTB 270615Z AUTO 21007KT 5SM -TSRA SCT016 BKN090 OVC120 22/20 A2993 RMK
                 AO2 LTG DSNT SE AND S P0003 T02150201 =
2018-05-27 01:55 METAR KPTB 270555Z AUTO 19005KT 10SM RA SCT025 BKN038 OVC090 21/20 A2993 RMK AO2
                 LTG DSNT SW P0008 60013 T02130202 10230 20213 =
2018-05-27 01:35 METAR KPTB 270535Z AUTO 21003KT 5SM RA SCT026 SCT034 BKN120 22/20 A2994 RMK AO2
                 P0004 T02150202 =
2018-05-27 01:15 METAR KPTB 270515Z AUTO 18003KT 7SM -RA SCT120 22/20 A2993 RMK AO2 P0001
                 T02160203 =
2018-05-27 00:55 METAR KPTB 270455Z AUTO 00000KT 7SM -RA SCT032 SCT050 SCT075 22/20 A2993 RMK AO2
                 LTG DSNT W P0005 T02170204 403030192 =
2018-05-27 00:35 METAR KPTB 270435Z AUTO 17003KT 7SM -RA SCT120 22/21 A2994 RMK AO2 P0003
                 T02200205 =
2018-05-27 00:15 METAR KPTB 270415Z AUTO 00000KT 7SM -RA SCT120 22/21 A2994 RMK AO2 P0002
                 T02200205 =
2018-05-26 23:55 METAR KPTB 270355Z AUTO 16003KT 7SM -RA SCT100 SCT120 22/21 A2994 RMK AO2 LTG
                 DSNT SW T02220205 =
2018-05-26 23:35 METAR KPTB 270335Z AUTO 16003KT 10SM -RA SCT070 SCT100 23/20 A2994 RMK AO2
                 T02270204 =
2018-05-26 23:15 METAR KPTB 270315Z AUTO 20003KT 10SM SCT085 22/20 A2993 RMK AO2 T02230204 =
2018-05-26 22:55 METAR KPTB 270255Z AUTO 00000KT 10SM BKN060 BKN085 22/21 A2993 RMK AO2 T02220205
                 =
2018-05-26 22:35 METAR KPTB 270235Z AUTO 00000KT 10SM OVC060 22/21 A2993 RMK AO2 T02220205 =
2018-05-26 22:15 METAR KPTB 270215Z AUTO 00000KT 10SM BKN070 22/20 A2993 RMK AO2 T02220203 =
2018-05-26 21:55 METAR KPTB 270155Z AUTO 00000KT 10SM SCT070 22/20 A2993 RMK AO2 T02210200 =
2018-05-26 21:35 METAR KPTB 270135Z AUTO 00000KT 10SM CLR 22/20 A2992 RMK AO2 T02210201 =
2018-05-26 21:15 METAR KPTB 270115Z AUTO 21003KT 10SM CLR 22/20 A2991 RMK AO2 T02230200 =
2018-05-26 20:55 METAR KPTB 270055Z AUTO 21003KT 10SM CLR 22/20 A2991 RMK AO2 T02240200 =
2018-05-26 20:35 METAR KPTB 270035Z AUTO 00000KT 10SM SCT120 23/20 A2991 RMK AO2 T02260199 =
2018-05-26 20:15 METAR KPTB 270015Z AUTO 00000KT 10SM -RA SCT100 SCT120 23/20 A2991 RMK AO2 LTG
                 DSNT W T02280201 =
2018-05-26 19:55 METAR KPTB 262355Z AUTO 00000KT 10SM -VCTSRA SCT100 23/20 A2990 RMK AO2 LTG DSNT
                 E T02310201 10303 20231 =
2018-05-26 19:35 METAR KPTB 262335Z AUTO 16003KT 10SM -TSRA BKN100 24/21 A2990 RMK AO2 LTG DSNT E
                 AND SE T02370205 =
2018-05-26 19:15 METAR KPTB 262315Z AUTO 19005KT 10SM -TSRA OVC100 25/21 A2990 RMK AO2 LTG DSNT
                 SE THRU SW T02470214 =
2018-05-26 18:55 METAR KPTB 262255Z AUTO 20003KT 7SM -VCTSRA SCT045 SCT065 BKN100 26/21 A2990 RMK
                 AO2 LTG DSNT S AND SW T02590206 =
2018-05-26 18:35 METAR KPTB 262235Z AUTO 00000KT 10SM VCTS CLR 26/20 A2989 RMK AO2 LTG DSNT SW
                 T02640204 =
2018-05-26 18:15 METAR KPTB 262215Z AUTO 21003KT 10SM CLR 27/21 A2988 RMK AO2 LTG DSNT N AND SW
                 T02670206 =
2018-05-26 17:55 METAR KPTB 262155Z AUTO 21006KT 10SM CLR 27/21 A2988 RMK AO2 LTG DSNT SW
                 T02700205 =
2018-05-26 17:35 METAR KPTB 262135Z AUTO 22004KT 10SM CLR 27/21 A2988 RMK AO2 LTG DSNT SW
                 T02740211 =
2018-05-26 17:15 METAR KPTB 262115Z AUTO 22003KT 10SM CLR 27/21 A2989 RMK AO2 T02730206 =
2018-05-26 16:55 METAR KPTB 262055Z AUTO 22004KT 10SM CLR 27/20 A2989 RMK AO2 LTG DSNT N AND W
                 T02670200 =
2018-05-26 16:35 METAR KPTB 262035Z AUTO 22005KT 10SM SCT037 SCT048 SCT060 27/20 A2988 RMK AO2
                 LTG DSNT SW T02720195 =
2018-05-26 16:15 METAR KPTB 262015Z AUTO 21006KT 10SM SCT039 BKN048 BKN065 28/20 A2988 RMK AO2
                 LTG DSNT NW T02770195 =
2018-05-26 15:55 METAR KPTB 261955Z AUTO 23011KT 10SM SCT041 30/20 A2988 RMK AO2 T03010200 =
2018-05-26 15:35 METAR KPTB 261935Z AUTO 22011G16KT 10SM SCT035 SCT041 SCT050 29/20 A2989 RMK AO2
                 T02930203 =
2018-05-26 15:15 METAR KPTB 261915Z AUTO 20008KT 10SM BKN035 BKN043 BKN050 29/20 A2990 RMK AO2
                 T02850196 =
2018-05-26 14:55 METAR KPTB 261855Z AUTO 22008KT 10SM BKN034 BKN041 28/20 A2990 RMK AO2 LTG DSNT
                 W T02830197 =
2018-05-26 14:35 METAR KPTB 261835Z AUTO 23010G15KT 10SM BKN034 BKN041 29/21 A2990 RMK AO2 LTG
                 DSNT NW T02890206 =
2018-05-26 14:15 METAR KPTB 261815Z AUTO 21007KT 10SM SCT034 30/21 A2990 RMK AO2 T02960210 =
2018-05-26 13:55 METAR KPTB 261755Z AUTO 21008G14KT 10SM SCT032 29/20 A2991 RMK AO2 T02920197
                 10294 20226 =
2018-05-26 13:35 METAR KPTB 261735Z AUTO 23010G15KT 10SM BKN032 BKN042 29/20 A2992 RMK AO2
                 T02900204 =
2018-05-26 13:15 METAR KPTB 261715Z AUTO 21008G14KT 10SM SCT032 BKN042 28/21 A2993 RMK AO2
                 T02840206 =
2018-05-26 12:55 METAR KPTB 261655Z AUTO 20007KT 10SM BKN030 BKN034 BKN042 28/21 A2993 RMK AO2
                 T02800205 =
2018-05-26 12:35 METAR KPTB 261635Z AUTO 20009G15KT 160V230 10SM BKN030 28/20 A2994 RMK AO2
                 T02810200 =
2018-05-26 12:15 METAR KPTB 261615Z AUTO 22010G15KT 10SM BKN034 28/20 A2994 RMK AO2 T02800200 =
2018-05-26 11:55 METAR KPTB 261555Z AUTO 20008KT 10SM BKN031 BKN038 28/20 A2995 RMK AO2 T02790203
                 =

Support USWX by starting your Amazon purchase here.